Anthony Murphy

Chief Scout - Ipswich Town
10 Dec 2028
Sunday
Process

Personality

Adaptability (5) Ambition (2) Controversy (7) Loyalty (8) Pressure (3) Professionalism (5) Sportsmanship (4) Temperament (16)

Profile

Coaching Style Democratic
License Continental B
Determination 12
Man Management 12
Motivating 12
Discipline 4
Job Satisfaction
100%
Fatigue
0%
Role Chief Scout
Wage 27.2K p/w
Contract 14.03.2030

Performance

Behaviour Good
Training Effectiveness
50%
Player Development
30%
Injury Prevention
45%
Tactical Implementation
30%

Recent Events

Attended a recruitment meeting now
Recommended a transfer target now
Recommended a transfer target now
Attended a recruitment meeting 7d ago
Recommended a transfer target 7d ago
Recommended a transfer target 7d ago
Recommended a transfer target 7d ago
Recommended a transfer target 7d ago

Currently Monitoring

166
Player Club Status Ability Confidence Watched Last Observed Latest Vote
Yousef Salech Cardiff City Active 138 / 143 55% 1 12.06.2028 -
Ronan Kpakio AC Milan Active 124 / 130 40% 2 31.05.2028 -
Riquelme Thompson-Jones Accrington Stanley Active 105 / 126 40% 7 29.05.2028 -
Josh Nichols Oldham Athletic Active 120 / 124 40% 5 27.05.2028 -
Giovanni Leoni Lincoln City Active 153 / 145 40% 3 27.05.2028 -
Jan Bürger Northampton Town Active 110 / 119 40% 3 24.05.2028 -
Amine Boukamir Charleroi Active 100 / 107 40% 3 24.05.2028 -
Joel Ezra Enyimba Active 101 / 101 40% 1 24.05.2028 -
Jorthy Mokio ADO Den Haag Active 135 / 141 40% 3 22.05.2028 -
Trey Nyoni Rotherham United Active 134 / 135 40% 4 22.05.2028 -
Oskar Pietuszewski Estrela da Amadora Active 121 / 138 40% 1 21.05.2028 -
Gabriel Mec Feirense Active 118 / 130 40% 1 21.05.2028 -
Miguel Figueiredo Benfica Active 126 / 132 40% 4 19.05.2028 -
Tyler Fletcher Rotherham United Active 118 / 128 40% 3 18.05.2028 -
Martim Cunha Porto Active 113 / 109 40% 2 16.05.2028 -
Lautaro Dufur Juventud Active 105 / 120 40% 1 15.05.2028 -
Bernardo Lima Porto Active 103 / 123 40% 3 12.05.2028 -
Olivier Mambwa Young Boys Active 109 / 124 40% 1 10.05.2028 -
Andrey Ivlev Nizhniy Novgorod Active 110 / 109 40% 3 09.05.2028 -
Rio Ngumoha Plymouth Argyle Active 138 / 136 40% 1 09.05.2028 -
André Miranda Porto Active 109 / 115 40% 1 09.05.2028 -
Noahkai Banks FC Augsburg Active 151 / 153 40% 1 07.05.2028 -
Shea Lacey Crystal Palace Active 130 / 143 40% 1 06.05.2028 -
Gabe Forsyth Colchester United Active 106 / 115 40% 1 06.05.2028 -
Luka Vušković Tottenham Active 138 / 144 40% 1 06.05.2028 -
Nazareno Roselli Defensa y Justicia Active 117 / 128 40% 1 05.05.2028 -
Ryan Kavuma-McQueen Accrington Stanley Active 130 / 126 40% 1 03.05.2028 -
Giovanni Cantizano Fulham Active 125 / 125 40% 1 02.05.2028 -
Daniel Banjaqui Benfica Active 125 / 123 40% 4 29.04.2028 -
Olivier Leroux Mouscron Active 113 / 102 40% 4 27.04.2028 -
Celías Ingenthron Platense Active 132 / 136 40% 1 24.04.2028 -
Denys Smetana Rukh Active 97 / 104 40% 1 22.04.2028 -
Victor Hernandez Santa Fe Active 136 / 107 40% 1 10.04.2028 -
Josh Acheampong Everton Active 132 / 158 40% 3 08.04.2028 -
Ayden Heaven Portsmouth Active 142 / 149 40% 2 04.04.2028 -
Honest Ahanor Atalanta Active 147 / 136 40% 1 04.04.2028 -
Nejc Viher NK Maribor Active 130 / 142 40% 4 03.04.2028 -
Federico Matarán Giana Erminio Active 95 / 124 40% 2 02.04.2028 -
Kiani Inge Groningen Active 117 / 117 40% 2 23.03.2028 -
Tobiáš Pališčák Zlin Active 89 / 105 40% 1 23.03.2028 -
Matvey Bardachev Zenit Active 99 / 97 40% 3 18.03.2028 -
Augusto Bando Ascoli Active 113 / 107 40% 1 18.03.2028 -
Christos Mouzakitis Hull City Active 137 / 146 40% 1 17.03.2028 -
Alessio Insignito Spezia Active 112 / 119 40% 1 10.03.2028 -
Jakub Adkonis Korona Active 114 / 109 40% 1 08.03.2028 -
Harbor Miller LA Galaxy Active 112 / 121 40% 1 14.02.2028 -
Mao Hosoya Santos Active 134 / 135 67% 1 01.01.2028 Approve
Toni Fruk Talleres Active 132 / 133 66% 1 01.01.2028 Approve
Dion Beljo AJ Auxerre Active 131 / 132 66% 1 01.01.2028 Approve
Kevin Schade Chelsea Active 149 / 157 40% 2 29.12.2027 -
Kasey McAteer Barnsley Active 139 / 128 40% 1 28.12.2027 -
Amine Adli Bournemouth Active 140 / 142 40% 3 27.12.2027 -
Callum Hudson-Odoi Nottingham Forest Active 159 / 155 40% 1 27.12.2027 -
Tino Livramento Newcastle United Active 155 / 156 40% 1 25.12.2027 -
Carlos Alcaraz Stoke City Active 144 / 141 40% 2 22.12.2027 -
Max Bird Birmingham Active 126 / 125 40% 1 22.12.2027 -
Óscar Mingueza Crystal Palace Active 149 / 141 40% 2 20.12.2027 -
Fábio Carvalho Brentford Active 132 / 136 40% 5 17.12.2027 -
Moisés Caicedo Chelsea Active 174 / 184 40% 2 17.12.2027 -
Emile Smith Rowe Cardiff City Active 146 / 164 40% 5 16.12.2027 -
Evann Guessand Aston Villa Active 163 / 143 40% 2 16.12.2027 -
Jaidon Anthony Derby County Active 136 / 126 40% 4 14.12.2027 -
Jaden Philogene Wolverhampton Active 151 / 142 40% 2 14.12.2027 -
Marcus Tavernier Bournemouth Active 156 / 155 40% 1 11.12.2027 -
Manuel Ugarte Leicester City Active 157 / 154 40% 1 11.12.2027 -
Mikkel Damsgaard Brentford Active 155 / 140 40% 2 10.12.2027 -
Jayden Bogle Leeds United Active 138 / 133 40% 2 10.12.2027 -
Nicolás González Juventus Active 157 / 147 40% 2 09.12.2027 -
Boubacar Kamara Aston Villa Active 179 / 178 40% 3 06.12.2027 -
Ismaïla Sarr Crystal Palace Active 144 / 144 40% 2 06.12.2027 -
Matteo Ruggeri Middlesbrough Active 161 / 157 40% 3 05.12.2027 -
Zito Luvumbo Cagliari Active 127 / 126 40% 1 04.12.2027 -
Xaver Schlager Nottingham Forest Active 168 / 149 40% 1 02.12.2027 -
Gonçalo Oliveira Benfica Active 112 / 125 40% 1 02.12.2027 -
Kevin Fulham Active 159 / 156 40% 5 27.11.2027 -
Tobias Moi Lillestrom Active 93 / 112 40% 1 27.11.2027 -
Exequiel Palacios Lazio Active 164 / 166 40% 2 26.11.2027 -
Mohamed-Ali Cho Hull City Active 147 / 141 40% 3 23.11.2027 -
Juanlu Bournemouth Active 149 / 164 40% 2 22.11.2027 -
William Osula Wrexham Active 139 / 137 40% 1 22.11.2027 -
Ryan Sessegnon Fulham Active 148 / 156 40% 2 21.11.2027 -
Ben Gannon Doak Charlton Athletic Active 142 / 147 40% 2 20.11.2027 -
Largie Ramazani Leeds United Active 140 / 148 40% 1 20.11.2027 -
Jack McGlynn Stoke City Active 128 / 147 40% 4 16.11.2027 -
Esquerdinha Notts County Active 109 / 117 40% 1 16.11.2027 -
Eddie Nketiah Crystal Palace Active 153 / 137 40% 2 13.11.2027 -
Savinho Tottenham Active 168 / 164 40% 1 12.11.2027 -
João Pedro Chelsea Active 145 / 148 40% 2 11.11.2027 -
Xavi Simons Tottenham Active 164 / 160 40% 1 11.11.2027 -
Christian Pulisic AC Milan Active 157 / 163 40% 1 07.11.2027 -
Harry Wilson Leeds United Active 142 / 155 40% 1 06.11.2027 -
Igor Burnley Active 150 / 141 40% 1 06.11.2027 -
Marquinhos Spartak Moscow Active 150 / 128 40% 1 05.11.2027 -
Adrian Skogmar Malmo FF Active 126 / 116 40% 1 04.11.2027 -
Quinten Timber Crystal Palace Active 148 / 147 40% 2 02.11.2027 -
James Maddison Tottenham Active 150 / 167 40% 1 31.10.2027 -
Brooke Norton-Cuffy Hull City Active 132 / 142 40% 1 27.10.2027 -
Nordi Mukiele Sunderland Active 161 / 139 40% 3 22.10.2027 -
Omari Hutchinson Nottingham Forest Active 143 / 146 40% 1 20.10.2027 -
Pedro Porro Tottenham Active 148 / 157 40% 2 19.10.2027 -
Rico Henry River Plate Active 148 / 136 40% 1 17.10.2027 -
Morgan Rogers Chelsea Active 175 / 152 40% 1 16.10.2027 -
David Brooks Bournemouth Active 154 / 135 40% 1 14.10.2027 -
Amadou Onana Aston Villa Active 171 / 153 40% 1 12.10.2027 -
Yeremy Pino Crystal Palace Active 148 / 166 40% 1 09.10.2027 -
Archie Gray Southampton Active 150 / 152 40% 1 08.10.2027 -
Chemsdine Talbi Sunderland Active 140 / 147 40% 4 06.10.2027 -
Enzo Le Fée Sunderland Active 132 / 143 40% 2 05.10.2027 -
André Wolverhampton Active 158 / 150 40% 1 05.10.2027 -
Malo Gusto Chelsea Active 152 / 166 40% 2 04.10.2027 -
Charles De Ketelaere Tottenham Active 148 / 146 40% 2 01.10.2027 -
Julio Enciso Aston Villa Active 150 / 150 40% 1 30.09.2027 -
Reece James Chelsea Active 187 / 166 40% 1 26.09.2027 -
Nicolas Jackson Aston Villa Active 157 / 138 40% 1 21.09.2027 -
Toby Collyer West Bromwich Albion Active 142 / 130 40% 1 18.09.2027 -
James McAtee Everton Active 155 / 158 40% 1 12.09.2027 -
Ismaël Bennacer Boca Juniors Active 139 / 144 40% 1 12.09.2027 -
Quilindschy Hartman Burnley Active 154 / 153 40% 1 11.09.2027 -
Carlos Baleba Norwich City Active 155 / 153 40% 1 06.09.2027 -
Zion Suzuki Aston Villa Active 154 / 157 40% 1 29.06.2027 -
Temirlan Anarbekov Kairat Active 110 / 107 40% 1 28.06.2027 -
Tiago Freitas Benfica Active 103 / 111 40% 1 03.06.2027 -
Yehor Yarmoliuk Brentford Active 137 / 159 40% 2 01.06.2027 -
Pedro de la Vega Columbus Crew Active 133 / 134 66% 1 01.06.2027 Approve
António Silva Bournemouth Active 154 / 152 40% 1 01.06.2027 -
Samuele di Benedetto Twente Active 114 / 114 40% 1 31.05.2027 -
Lucas Agazzi Villarreal Active 128 / 127 40% 1 15.01.2027 -
Cemran Dansin Orlando Pirates Active 116 / 121 40% 1 15.01.2027 -
Owen Lunt Crewe Alexandra Active 90 / 115 40% 2 12.01.2027 -
Caleb Yirenkyi Coventry City Active 145 / 133 40% 3 11.01.2027 -
David Ozoh Derby County Active 118 / 134 40% 1 07.01.2027 -
Kamaldeen Atiemo Wa All Stars Active 87 / 91 40% 1 05.01.2027 -
Reed Baker-Whiting Nashville SC Active 100 / 105 40% 2 02.01.2027 -
Diogo Monteiro Tondela Active 106 / 98 40% 1 01.01.2027 -
Jesus Ferreira Seattle Sounders Active 135 / 132 40% 1 30.12.2026 -
Petar Stanić Ludogorets Active 151 / 145 40% 1 30.12.2026 -
Matt O'Riley Brighton Active 138 / 156 40% 2 29.12.2026 -
Jack Rudoni Coventry City Active 134 / 141 40% 3 21.12.2026 -
Milan van Ewijk Coventry City Active 140 / 125 40% 2 19.12.2026 -
Reda Khadra Qarabag Active 140 / 131 40% 2 18.12.2026 -
Marcel Ruiz Crystal Palace Active 155 / 145 40% 2 17.12.2026 -
Giacomo Raspadori Atalanta Active 136 / 147 40% 1 13.12.2026 -
Aaron Hickey Brentford Active 139 / 135 40% 2 09.12.2026 -
Jordan Beyer Burnley Active 149 / 129 40% 2 08.12.2026 -
Marcelo Allende Mamelodi Sundowns Active 110 / 134 40% 2 04.12.2026 -
Tomáš Rigo Stoke City Active 126 / 137 40% 2 04.12.2026 -
Mbekezeli Mbokazi Chicago Fire Active 134 / 132 40% 5 03.12.2026 -
Tyrese Campbell Sheffield United Active 143 / 126 40% 1 03.12.2026 -
Reece Braithwaite Bloemfontein Celtic Active 93 / 118 40% 1 03.12.2026 -
Adam Wharton Crystal Palace Active 139 / 144 40% 2 29.11.2026 -
Rodrigo Gomes Wolverhampton Active 132 / 150 40% 1 22.11.2026 -
Elliot Anderson Manchester City Active 146 / 152 40% 1 20.11.2026 -
Wilson Isidor Sunderland Active 137 / 122 40% 1 17.11.2026 -
Lucas Bergvall Tottenham Active 128 / 141 40% 2 09.11.2026 -
Antony Portland Timbers Active 147 / 122 40% 1 28.10.2026 -
Nicolas Madsen Queens Park Rangers Active 140 / 117 40% 1 19.10.2026 -
Talles Magno New York City Active 114 / 130 40% 2 17.10.2026 -
Takehiro Tomiyasu Crystal Palace Active 145 / 137 40% 1 15.10.2026 -
Michael Kayode Brentford Active 141 / 150 40% 1 15.10.2026 -
Alex Scott Bournemouth Active 139 / 139 40% 1 08.10.2026 -
Keane Lewis-Potter Brentford Active 135 / 152 40% 1 06.10.2026 -
Marcus Edwards Burnley Active 147 / 127 40% 1 06.10.2026 -
Djordje Mihailović Toronto FC Active 147 / 137 40% 1 05.10.2026 -
James Bacca La Equidad Active 136 / 149 40% 2 11.09.2026 -
Philippe Ndinga Philadelphia Union Active 100 / 113 40% 1 24.08.2026 -
Facundo Di Biasi Gimnasia La Plata Active 118 / 135 40% 1 21.08.2026 -